EGPE/INV METAR and TAF weather

Enter ICAO airport designator
Station Type Date Time Source
EGPE METAR 2021/05/15 01:20 UTC NOAA

EGPE 150120Z AUTO 05002KT 9999 NCD 03/03 Q1005


Station Type Date Time Source
EGPE Decoded METAR 2021/05/15 01:20 UTC NOAA

Inverness / Dalcross, United Kingdom (EGPE) 57-32N 004-03W 0M
May 14, 2021 - 09:20 PM EDT / 2021.05.15 0120 UTC
Wind: from the NE (050 degrees) at 2 MPH (2 KT):0
Visibility: greater than 7 mile(s):0
Temperature: 37 F (3 C)
Dew Point: 37 F (3 C)
Relative Humidity: 100%
Pressure (altimeter): 29.68 in. Hg (1005 hPa)
ob: EGPE 150120Z AUTO 05002KT 9999 NCD 03/03 Q1005
cycle: 1

Station Type Date Time Source
EGPE TAF UTC NOAA

Error!

Example: see airport list